createdAt,value
2023-03-20T00:00:38.000Z,1007.1
2023-03-20T00:04:14.000Z,1007.1
2023-03-20T00:05:25.000Z,1007.1
2023-03-20T00:06:37.000Z,1007.2
2023-03-20T00:07:48.000Z,1007.2
2023-03-20T00:08:59.000Z,1007.1
2023-03-20T00:10:11.000Z,1007.1
2023-03-20T00:11:23.000Z,1007.1
2023-03-20T00:12:35.000Z,1007
2023-03-20T00:13:48.000Z,1007
2023-03-20T00:15:00.000Z,1006.9
2023-03-20T00:16:12.000Z,1007
2023-03-20T00:17:24.000Z,1007
2023-03-20T00:18:36.000Z,1007
2023-03-20T00:19:49.000Z,1007
2023-03-20T00:21:00.000Z,1007
2023-03-20T00:22:11.000Z,1007
2023-03-20T00:23:22.000Z,1007.1
2023-03-20T00:24:33.000Z,1007
2023-03-20T00:25:46.000Z,1007
2023-03-20T00:26:58.000Z,1007
2023-03-20T00:28:10.000Z,1007
2023-03-20T00:29:22.000Z,1007
2023-03-20T00:30:34.000Z,1007
2023-03-20T00:31:46.000Z,1007
2023-03-20T00:32:59.000Z,1007.1
2023-03-20T00:34:11.000Z,1007
2023-03-20T00:35:23.000Z,1007
2023-03-20T00:36:35.000Z,1007.1
2023-03-20T00:37:47.000Z,1007
2023-03-20T00:39:00.000Z,1007
2023-03-20T00:40:11.000Z,1007
2023-03-20T00:41:23.000Z,1007.1
2023-03-20T00:42:35.000Z,1007
2023-03-20T00:43:47.000Z,1007.1
2023-03-20T00:45:00.000Z,1007.1
2023-03-20T00:46:12.000Z,1007
2023-03-20T00:47:24.000Z,1007
2023-03-20T00:48:35.000Z,1007
2023-03-20T00:49:46.000Z,1007.1
2023-03-20T00:50:58.000Z,1007.1
2023-03-20T00:52:09.000Z,1007
2023-03-20T00:53:21.000Z,1007.1
2023-03-20T00:54:33.000Z,1007.1
2023-03-20T00:55:45.000Z,1007.1
2023-03-20T00:56:57.000Z,1007
2023-03-20T00:58:10.000Z,1007.1
2023-03-20T00:59:22.000Z,1007.1
2023-03-20T01:00:34.000Z,1007.1
2023-03-20T01:01:46.000Z,1007
2023-03-20T01:02:58.000Z,1007
2023-03-20T01:04:11.000Z,1007.1
2023-03-20T01:05:23.000Z,1007.1
2023-03-20T01:06:35.000Z,1007.1
2023-03-20T01:07:46.000Z,1007.1
2023-03-20T01:08:58.000Z,1007.1
2023-03-20T01:10:10.000Z,1007
2023-03-20T01:11:23.000Z,1007
2023-03-20T01:12:35.000Z,1007
2023-03-20T01:13:47.000Z,1007
2023-03-20T01:14:59.000Z,1007.1
2023-03-20T01:16:10.000Z,1007.1
2023-03-20T01:17:22.000Z,1007
2023-03-20T01:18:33.000Z,1007
2023-03-20T01:19:44.000Z,1007.1
2023-03-20T01:20:56.000Z,1007.1
2023-03-20T01:22:08.000Z,1007.1
2023-03-20T01:23:21.000Z,1007.1
2023-03-20T01:24:33.000Z,1007.1
2023-03-20T01:25:45.000Z,1007.1
2023-03-20T01:26:57.000Z,1007.1
2023-03-20T01:28:09.000Z,1007.2
2023-03-20T01:29:22.000Z,1007.1
2023-03-20T01:30:34.000Z,1007.1
2023-03-20T01:31:46.000Z,1007.2
2023-03-20T01:32:58.000Z,1007.2
2023-03-20T01:34:10.000Z,1007.2
2023-03-20T01:35:21.000Z,1007.2
2023-03-20T01:36:34.000Z,1007.2
2023-03-20T01:37:46.000Z,1007.2
2023-03-20T01:38:58.000Z,1007.2
2023-03-20T01:40:10.000Z,1007.2
2023-03-20T01:41:22.000Z,1007.2
2023-03-20T01:42:35.000Z,1007.2
2023-03-20T01:43:46.000Z,1007.2
2023-03-20T01:44:57.000Z,1007.2
2023-03-20T01:46:09.000Z,1007.2
2023-03-20T01:47:21.000Z,1007.2
2023-03-20T01:48:33.000Z,1007.2
2023-03-20T01:49:46.000Z,1007.2
2023-03-20T01:50:58.000Z,1007.3
2023-03-20T01:52:10.000Z,1007.2
2023-03-20T01:53:22.000Z,1007.3
2023-03-20T01:54:34.000Z,1007.2
2023-03-20T01:55:47.000Z,1007.3
2023-03-20T01:56:59.000Z,1007.4
2023-03-20T01:58:11.000Z,1007.4
2023-03-20T01:59:23.000Z,1007.3
2023-03-20T02:00:34.000Z,1007.3
2023-03-20T02:01:47.000Z,1007.4
2023-03-20T02:02:59.000Z,1007.4
2023-03-20T02:04:11.000Z,1007.3
2023-03-20T02:05:23.000Z,1007.3
2023-03-20T02:06:35.000Z,1007.4
2023-03-20T02:07:47.000Z,1007.3
2023-03-20T02:09:00.000Z,1007.3
2023-03-20T02:10:11.000Z,1007.3
2023-03-20T02:11:22.000Z,1007.2
2023-03-20T02:12:34.000Z,1007.3
2023-03-20T02:13:46.000Z,1007.3
2023-03-20T02:14:59.000Z,1007.2
2023-03-20T02:16:11.000Z,1007.2
2023-03-20T02:17:23.000Z,1007.2
2023-03-20T02:18:35.000Z,1007.2
2023-03-20T02:19:47.000Z,1007.2
2023-03-20T02:21:00.000Z,1007.2
2023-03-20T02:22:12.000Z,1007.2
2023-03-20T02:23:24.000Z,1007.2
2023-03-20T02:24:36.563Z,1007.2
2023-03-20T02:25:48.000Z,1007.2
2023-03-20T02:26:59.000Z,1007.2
2023-03-20T02:28:12.000Z,1007.2
2023-03-20T02:29:24.000Z,1007.1
2023-03-20T02:30:36.000Z,1007.2
2023-03-20T02:31:48.000Z,1007.1
2023-03-20T02:33:00.000Z,1007.2
2023-03-20T02:34:13.000Z,1007.2
2023-03-20T02:35:24.000Z,1007.2
2023-03-20T02:36:35.000Z,1007.2
2023-03-20T02:37:46.000Z,1007.2
2023-03-20T02:38:57.000Z,1007.3
2023-03-20T02:40:09.000Z,1007.3
2023-03-20T02:41:20.000Z,1007.3
2023-03-20T02:42:31.000Z,1007.3
2023-03-20T02:43:42.000Z,1007.3
2023-03-20T02:44:54.000Z,1007.2
2023-03-20T02:46:07.000Z,1007.2
2023-03-20T02:47:19.000Z,1007.2
2023-03-20T02:48:31.000Z,1007.2
2023-03-20T02:49:43.000Z,1007.2
2023-03-20T02:50:55.000Z,1007.2
2023-03-20T02:52:07.000Z,1007.2
2023-03-20T02:53:20.000Z,1007.2
2023-03-20T02:54:32.000Z,1007.2
2023-03-20T02:55:44.000Z,1007.2
2023-03-20T02:56:56.000Z,1007.2
2023-03-20T02:58:08.000Z,1007.2
2023-03-20T02:59:20.000Z,1007.2
2023-03-20T03:00:32.000Z,1007.2
2023-03-20T03:01:44.000Z,1007.2
2023-03-20T03:02:56.000Z,1007.2
2023-03-20T03:04:08.000Z,1007.2
2023-03-20T03:05:20.000Z,1007.2
2023-03-20T03:06:33.000Z,1007.1
2023-03-20T03:07:44.000Z,1007.1
2023-03-20T03:08:55.000Z,1007.2
2023-03-20T03:10:06.000Z,1007.2
2023-03-20T03:11:17.000Z,1007.2
2023-03-20T03:12:30.000Z,1007.2
2023-03-20T03:13:42.000Z,1007.2
2023-03-20T03:14:53.000Z,1007.2
2023-03-20T03:16:05.000Z,1007.2
2023-03-20T03:17:17.000Z,1007.3
2023-03-20T03:18:30.000Z,1007.2
2023-03-20T03:19:42.000Z,1007.2
2023-03-20T03:20:54.000Z,1007.2
2023-03-20T03:22:06.000Z,1007.3
2023-03-20T03:23:18.000Z,1007.3
2023-03-20T03:24:31.000Z,1007.3
2023-03-20T03:25:43.000Z,1007.3
2023-03-20T03:26:55.000Z,1007.2
2023-03-20T03:28:07.000Z,1007.3
2023-03-20T03:29:19.000Z,1007.3
2023-03-20T03:30:30.000Z,1007.3
2023-03-20T03:31:43.000Z,1007.3
2023-03-20T03:32:55.000Z,1007.3
2023-03-20T03:34:07.000Z,1007.4
2023-03-20T03:35:18.000Z,1007.3
2023-03-20T03:36:29.000Z,1007.4
2023-03-20T03:37:42.000Z,1007.4
2023-03-20T03:38:54.000Z,1007.4
2023-03-20T03:40:06.000Z,1007.4
2023-03-20T03:41:18.000Z,1007.5
2023-03-20T03:42:30.000Z,1007.4
2023-03-20T03:43:43.000Z,1007.5
2023-03-20T03:44:55.000Z,1007.4
2023-03-20T03:46:07.000Z,1007.5
2023-03-20T03:47:19.000Z,1007.5
2023-03-20T03:48:31.000Z,1007.5
2023-03-20T03:49:43.000Z,1007.4
2023-03-20T03:50:56.000Z,1007.5
2023-03-20T03:52:07.000Z,1007.5
2023-03-20T03:53:19.000Z,1007.5
2023-03-20T03:54:31.000Z,1007.5
2023-03-20T03:55:43.000Z,1007.5
2023-03-20T03:56:56.000Z,1007.5
2023-03-20T03:58:08.000Z,1007.6
2023-03-20T03:59:20.000Z,1007.5
2023-03-20T04:00:31.000Z,1007.6
2023-03-20T04:01:42.000Z,1007.5
2023-03-20T04:02:55.000Z,1007.5
2023-03-20T04:04:07.000Z,1007.5
2023-03-20T04:06:31.000Z,1007.6
2023-03-20T04:07:43.000Z,1007.6
2023-03-20T04:08:55.000Z,1007.5
2023-03-20T04:10:08.000Z,1007.5
2023-03-20T04:11:20.000Z,1007.6
2023-03-20T04:13:44.000Z,1007.5
2023-03-20T04:14:56.000Z,1007.6
2023-03-20T04:16:08.000Z,1007.5
2023-03-20T04:17:19.000Z,1007.6
2023-03-20T04:18:30.000Z,1007.7
2023-03-20T04:19:41.000Z,1007.6
2023-03-20T04:20:53.000Z,1007.6
2023-03-20T04:22:06.000Z,1007.8
2023-03-20T04:23:18.000Z,1007.7
2023-03-20T04:24:30.000Z,1007.7
2023-03-20T04:25:42.000Z,1007.7
2023-03-20T04:26:54.000Z,1007.7
2023-03-20T04:28:06.000Z,1007.7
2023-03-20T04:29:19.000Z,1007.7
2023-03-20T04:30:31.000Z,1007.7
2023-03-20T04:31:43.000Z,1007.7
2023-03-20T04:32:54.000Z,1007.7
2023-03-20T04:34:05.000Z,1007.7
2023-03-20T04:35:18.000Z,1007.7
2023-03-20T04:36:30.000Z,1007.8
2023-03-20T04:37:42.000Z,1007.7
2023-03-20T04:38:54.000Z,1007.6
2023-03-20T04:40:06.000Z,1007.8
2023-03-20T04:41:19.000Z,1007.7
2023-03-20T04:42:31.000Z,1007.7
2023-03-20T04:43:43.000Z,1007.7
2023-03-20T04:44:55.000Z,1007.8
2023-03-20T04:46:07.000Z,1007.7
2023-03-20T04:47:19.000Z,1007.8
2023-03-20T04:48:32.000Z,1007.8
2023-03-20T04:49:43.000Z,1007.8
2023-03-20T04:50:55.000Z,1007.8
2023-03-20T04:52:07.000Z,1007.8
2023-03-20T04:53:19.000Z,1007.8
2023-03-20T04:54:32.000Z,1007.8
2023-03-20T04:55:44.000Z,1007.8
2023-03-20T04:56:56.000Z,1007.8
2023-03-20T04:58:07.000Z,1007.8
2023-03-20T04:59:18.000Z,1007.8
2023-03-20T05:00:30.000Z,1007.8
2023-03-20T05:01:41.000Z,1007.8
2023-03-20T05:02:53.000Z,1007.8
2023-03-20T05:04:05.000Z,1007.8
2023-03-20T05:05:16.000Z,1007.8
2023-03-20T05:06:28.000Z,1007.9
2023-03-20T05:07:40.000Z,1007.9
2023-03-20T05:08:52.000Z,1007.9
2023-03-20T05:10:04.000Z,1007.9
2023-03-20T05:11:16.000Z,1007.9
2023-03-20T05:12:28.000Z,1007.9
2023-03-20T05:13:41.000Z,1007.9
2023-03-20T05:14:53.000Z,1007.9
2023-03-20T05:16:05.000Z,1008
2023-03-20T05:17:17.000Z,1007.9
2023-03-20T05:18:29.000Z,1008
2023-03-20T05:19:42.000Z,1007.9
2023-03-20T05:20:54.000Z,1007.9
2023-03-20T05:22:05.000Z,1007.9
2023-03-20T05:23:17.000Z,1007.9
2023-03-20T05:24:29.000Z,1007.8
2023-03-20T05:25:42.000Z,1007.9
2023-03-20T05:26:54.000Z,1007.9
2023-03-20T05:28:06.000Z,1007.9
2023-03-20T05:29:18.000Z,1007.9
2023-03-20T05:30:29.000Z,1007.9
2023-03-20T05:31:40.000Z,1007.9
2023-03-20T05:32:52.000Z,1007.9
2023-03-20T05:34:03.000Z,1008
2023-03-20T05:35:15.000Z,1008
2023-03-20T05:36:27.000Z,1008
2023-03-20T05:37:39.000Z,1008
2023-03-20T05:38:52.000Z,1008
2023-03-20T05:40:04.000Z,1008
2023-03-20T05:41:16.000Z,1008
2023-03-20T05:42:28.000Z,1008
2023-03-20T05:43:40.000Z,1008.1
2023-03-20T05:44:53.000Z,1008.1
2023-03-20T05:46:05.000Z,1008
2023-03-20T05:47:17.000Z,1008.1
2023-03-20T05:48:29.000Z,1008.1
2023-03-20T05:49:40.000Z,1008
2023-03-20T05:50:52.000Z,1008
2023-03-20T05:52:05.000Z,1008.1
2023-03-20T05:53:17.000Z,1008.1
2023-03-20T05:54:29.000Z,1008.1
2023-03-20T05:55:41.000Z,1008.2
2023-03-20T05:56:53.000Z,1008.1
2023-03-20T05:58:05.000Z,1008.1
2023-03-20T05:59:16.000Z,1008.2
2023-03-20T06:00:27.000Z,1008.2
2023-03-20T06:01:38.000Z,1008.2
2023-03-20T06:02:50.000Z,1008.3
2023-03-20T06:04:03.000Z,1008.2
2023-03-20T06:05:15.000Z,1008.2
2023-03-20T06:06:27.000Z,1008.1
2023-03-20T06:07:39.000Z,1008.2
2023-03-20T06:08:51.000Z,1008.3
2023-03-20T06:10:04.000Z,1008.3
2023-03-20T06:11:16.000Z,1008.3
2023-03-20T06:12:28.000Z,1008.3
2023-03-20T06:13:40.000Z,1008.3
2023-03-20T06:14:52.000Z,1008.4
2023-03-20T06:16:04.000Z,1008.3
2023-03-20T06:17:16.000Z,1008.3
2023-03-20T06:18:28.000Z,1008.4
2023-03-20T06:19:40.000Z,1008.4
2023-03-20T06:20:52.000Z,1008.3
2023-03-20T06:22:04.000Z,1008.4
2023-03-20T06:23:17.000Z,1008.3
2023-03-20T06:24:29.000Z,1008.3
2023-03-20T06:25:40.000Z,1008.3
2023-03-20T06:26:51.000Z,1008.3
2023-03-20T06:28:03.000Z,1008.4
2023-03-20T06:29:16.000Z,1008.4
2023-03-20T06:31:40.000Z,1008.4
2023-03-20T06:32:52.000Z,1008.4
2023-03-20T06:35:16.000Z,1008.4
2023-03-20T06:36:29.000Z,1008.5
2023-03-20T06:37:41.000Z,1008.4
2023-03-20T06:38:53.000Z,1008.4
2023-03-20T06:40:05.000Z,1008.4
2023-03-20T06:41:16.000Z,1008.4
2023-03-20T06:42:28.000Z,1008.5
2023-03-20T06:43:40.000Z,1008.5
2023-03-20T06:44:51.000Z,1008.4
2023-03-20T06:46:02.000Z,1008.4
2023-03-20T06:47:14.000Z,1008.4
2023-03-20T06:48:27.000Z,1008.5
2023-03-20T06:49:39.000Z,1008.5
2023-03-20T06:50:51.000Z,1008.5
2023-03-20T06:52:03.000Z,1008.5
2023-03-20T06:53:15.000Z,1008.6
2023-03-20T06:54:28.000Z,1008.5
2023-03-20T06:55:40.000Z,1008.5
2023-03-20T06:56:52.000Z,1008.5
2023-03-20T06:58:03.000Z,1008.5
2023-03-20T06:59:14.000Z,1008.6
2023-03-20T07:00:26.000Z,1008.5
2023-03-20T07:01:39.000Z,1008.6
2023-03-20T07:02:51.000Z,1008.6
2023-03-20T07:04:03.000Z,1008.6
2023-03-20T07:05:15.000Z,1008.7
2023-03-20T07:06:27.000Z,1008.6
2023-03-20T07:07:40.000Z,1008.6
2023-03-20T07:08:52.000Z,1008.6
2023-03-20T07:10:04.000Z,1008.6
2023-03-20T07:11:16.000Z,1008.7
2023-03-20T07:12:28.000Z,1008.7
2023-03-20T07:13:41.000Z,1008.7
2023-03-20T07:14:52.000Z,1008.7
2023-03-20T07:16:03.000Z,1008.7
2023-03-20T07:17:15.000Z,1008.8
2023-03-20T07:18:27.000Z,1008.7
2023-03-20T07:19:39.000Z,1008.7
2023-03-20T07:20:52.000Z,1008.8
2023-03-20T07:22:04.000Z,1008.7
2023-03-20T07:23:15.000Z,1008.7
2023-03-20T07:24:26.000Z,1008.7
2023-03-20T07:25:37.000Z,1008.7
2023-03-20T07:26:49.000Z,1008.7
2023-03-20T07:28:01.000Z,1008.7
2023-03-20T07:29:13.000Z,1008.8
2023-03-20T07:30:25.000Z,1008.8
2023-03-20T07:31:37.000Z,1008.8
2023-03-20T07:32:50.000Z,1008.7
2023-03-20T07:34:02.000Z,1008.8
2023-03-20T07:35:14.000Z,1008.7
2023-03-20T07:36:26.000Z,1008.8
2023-03-20T07:37:38.000Z,1008.8
2023-03-20T07:38:51.000Z,1008.8
2023-03-20T07:40:03.000Z,1008.8
2023-03-20T07:41:15.000Z,1008.8
2023-03-20T07:42:26.000Z,1008.8
2023-03-20T07:43:38.000Z,1008.8
2023-03-20T07:44:50.000Z,1008.7
2023-03-20T07:46:03.000Z,1008.8
2023-03-20T07:47:15.000Z,1008.7
2023-03-20T07:48:27.000Z,1008.7
2023-03-20T07:49:39.000Z,1008.7
2023-03-20T07:50:50.000Z,1008.7
2023-03-20T07:52:02.000Z,1008.7
2023-03-20T07:53:13.000Z,1008.7
2023-03-20T07:58:01.000Z,1008.7
2023-03-20T07:59:13.000Z,1008.7
2023-03-20T08:02:49.000Z,1008.7
2023-03-20T08:07:38.000Z,1008.7
2023-03-20T08:19:40.000Z,1008.8
2023-03-20T08:20:52.000Z,1008.9
2023-03-20T08:22:04.000Z,1008.8
2023-03-20T08:23:15.000Z,1008.8
2023-03-20T08:24:28.000Z,1008.8
2023-03-20T08:25:40.000Z,1008.9
2023-03-20T08:26:51.000Z,1008.9
2023-03-20T08:28:02.000Z,1008.9
2023-03-20T08:29:14.000Z,1008.9
2023-03-20T08:30:27.000Z,1008.9
2023-03-20T08:31:39.000Z,1008.9
2023-03-20T08:32:51.000Z,1008.9
2023-03-20T08:34:03.000Z,1008.9
2023-03-20T08:35:15.000Z,1008.9
2023-03-20T08:36:28.000Z,1008.9
2023-03-20T08:37:40.000Z,1008.9
2023-03-20T08:38:52.000Z,1008.9
2023-03-20T08:40:03.000Z,1008.9
2023-03-20T08:41:14.000Z,1008.9
2023-03-20T08:42:26.000Z,1008.8
2023-03-20T08:43:39.000Z,1008.9
2023-03-20T08:44:51.000Z,1008.9
2023-03-20T08:46:03.000Z,1008.9
2023-03-20T08:47:15.000Z,1009
2023-03-20T08:48:27.000Z,1008.9
2023-03-20T08:49:40.000Z,1009
2023-03-20T08:50:52.000Z,1009
2023-03-20T08:52:04.000Z,1009
2023-03-20T08:53:15.000Z,1009
2023-03-20T08:54:26.000Z,1009.1
2023-03-20T08:55:39.000Z,1009.1
2023-03-20T08:56:51.000Z,1009.1
2023-03-20T08:58:03.000Z,1009.1
2023-03-20T08:59:15.000Z,1009.1
2023-03-20T09:00:27.000Z,1009.1
2023-03-20T09:01:40.000Z,1009.1
2023-03-20T09:02:52.000Z,1009.1
2023-03-20T09:04:04.000Z,1009.1
2023-03-20T09:05:16.000Z,1009.1
2023-03-20T09:06:28.000Z,1009.1
2023-03-20T09:07:40.000Z,1009.1
2023-03-20T09:08:53.000Z,1009.1
2023-03-20T09:10:04.000Z,1009.1
2023-03-20T09:11:16.000Z,1009.1
2023-03-20T09:12:28.000Z,1009
2023-03-20T09:13:40.000Z,1009.1
2023-03-20T09:14:53.000Z,1009.1
2023-03-20T09:16:05.000Z,1009.2
2023-03-20T09:17:17.000Z,1009.1
2023-03-20T09:18:29.000Z,1009.1
2023-03-20T09:19:40.000Z,1009.2
2023-03-20T09:20:52.000Z,1009.2
2023-03-20T09:22:03.000Z,1009.1
2023-03-20T09:23:14.000Z,1009.1
2023-03-20T09:24:26.000Z,1009.1
2023-03-20T09:25:38.000Z,1009.2
2023-03-20T09:26:50.000Z,1009.2
2023-03-20T09:28:03.000Z,1009.2
2023-03-20T09:29:15.000Z,1009.2
2023-03-20T09:30:27.000Z,1009.2
2023-03-20T09:31:39.000Z,1009.3
2023-03-20T09:32:51.000Z,1009.3
2023-03-20T09:34:04.000Z,1009.3
2023-03-20T09:35:16.000Z,1009.3
2023-03-20T09:36:28.000Z,1009.3
2023-03-20T09:37:40.000Z,1009.3
2023-03-20T09:38:51.000Z,1009.3
2023-03-20T09:40:04.000Z,1009.3
2023-03-20T09:41:16.000Z,1009.3
2023-03-20T09:42:28.000Z,1009.3
2023-03-20T09:43:40.000Z,1009.3
2023-03-20T09:44:52.000Z,1009.3
2023-03-20T09:46:04.000Z,1009.3
2023-03-20T09:47:16.000Z,1009.3
2023-03-20T09:48:27.000Z,1009.3
2023-03-20T09:49:39.000Z,1009.3
2023-03-20T09:50:51.000Z,1009.3
2023-03-20T09:52:03.000Z,1009.3
2023-03-20T09:53:16.000Z,1009.3
2023-03-20T09:54:28.000Z,1009.3
2023-03-20T09:55:40.000Z,1009.2
2023-03-20T09:56:52.000Z,1009.3
2023-03-20T09:58:04.000Z,1009.3
2023-03-20T09:59:17.000Z,1009.3
2023-03-20T10:00:29.000Z,1009.3
2023-03-20T10:01:41.000Z,1009.3
2023-03-20T10:02:53.000Z,1009.3
2023-03-20T10:04:04.000Z,1009.3
2023-03-20T10:05:16.000Z,1009.3
2023-03-20T10:06:29.000Z,1009.3
2023-03-20T10:07:41.000Z,1009.3
2023-03-20T10:08:53.000Z,1009.3
2023-03-20T10:10:05.000Z,1009.3
2023-03-20T10:11:17.000Z,1009.3
2023-03-20T10:12:29.000Z,1009.3
2023-03-20T10:13:40.000Z,1009.2
2023-03-20T10:14:51.000Z,1009.2
2023-03-20T10:16:02.000Z,1009.2
2023-03-20T10:17:13.000Z,1009.3
2023-03-20T10:18:25.000Z,1009.3
2023-03-20T10:19:37.000Z,1009.3
2023-03-20T10:20:49.000Z,1009.3
2023-03-20T10:22:01.000Z,1009.3
2023-03-20T10:23:13.000Z,1009.3
2023-03-20T10:24:26.000Z,1009.3
2023-03-20T10:25:38.000Z,1009.2
2023-03-20T10:26:50.000Z,1009.3
2023-03-20T10:28:02.000Z,1009.2
2023-03-20T10:29:14.000Z,1009.2
2023-03-20T10:30:26.000Z,1009.2
2023-03-20T10:31:39.000Z,1009.1
2023-03-20T10:32:51.000Z,1009.2
2023-03-20T10:34:02.000Z,1009.2
2023-03-20T10:35:14.000Z,1009.2
2023-03-20T10:36:26.000Z,1009.2
2023-03-20T10:37:39.000Z,1009.2
2023-03-20T10:38:51.000Z,1009.2
2023-03-20T10:40:03.000Z,1009.2
2023-03-20T10:41:15.000Z,1009.2
2023-03-20T10:42:26.000Z,1009.1
2023-03-20T10:43:38.000Z,1009.2
2023-03-20T10:44:49.000Z,1009.2
2023-03-20T10:46:00.000Z,1009.2
2023-03-20T10:47:12.000Z,1009.2
2023-03-20T10:48:24.000Z,1009.2
2023-03-20T10:49:37.000Z,1009.2
2023-03-20T10:50:49.000Z,1009.2
2023-03-20T10:52:01.000Z,1009.2
2023-03-20T10:53:13.000Z,1009.1
2023-03-20T10:54:25.000Z,1009.2
2023-03-20T10:55:37.000Z,1009.2
2023-03-20T10:56:50.000Z,1009.2
2023-03-20T10:58:02.000Z,1009.1
2023-03-20T10:59:14.000Z,1009.2
2023-03-20T11:00:26.000Z,1009.1
2023-03-20T11:01:37.000Z,1009.1
2023-03-20T11:02:50.000Z,1009.1
2023-03-20T11:04:02.000Z,1009.1
2023-03-20T11:05:14.000Z,1009.1
2023-03-20T11:06:26.000Z,1009.1
2023-03-20T11:08:51.000Z,1009.1
2023-03-20T11:10:03.000Z,1009.1
2023-03-20T11:11:14.000Z,1009.2
2023-03-20T11:12:25.000Z,1009.1
2023-03-20T11:13:36.000Z,1009
2023-03-20T11:14:48.000Z,1009.1
2023-03-20T11:16:00.000Z,1009.1
2023-03-20T11:17:11.000Z,1009.1
2023-03-20T11:18:23.000Z,1009
2023-03-20T11:19:35.000Z,1009.1
2023-03-20T11:20:47.000Z,1009.1
2023-03-20T11:22:00.000Z,1009.1
2023-03-20T11:23:12.000Z,1009
2023-03-20T11:24:24.000Z,1009
2023-03-20T11:25:36.000Z,1009.1
2023-03-20T11:26:48.000Z,1009.1
2023-03-20T11:28:01.000Z,1009.1
2023-03-20T11:29:13.000Z,1009.1
2023-03-20T11:30:25.000Z,1009.1
2023-03-20T11:31:37.000Z,1009.1
2023-03-20T11:32:48.000Z,1009.1
2023-03-20T11:34:01.000Z,1009.1
2023-03-20T11:35:13.000Z,1009.1
2023-03-20T11:36:25.000Z,1009.1
2023-03-20T11:37:37.000Z,1009.1
2023-03-20T11:38:48.000Z,1009
2023-03-20T11:39:59.000Z,1009
2023-03-20T11:41:12.000Z,1009
2023-03-20T11:42:24.000Z,1009
2023-03-20T11:43:36.000Z,1009
2023-03-20T11:44:48.000Z,1009.1
2023-03-20T11:46:00.000Z,1009.1
2023-03-20T11:47:13.000Z,1009
2023-03-20T11:48:25.000Z,1009
2023-03-20T11:49:37.000Z,1009
2023-03-20T11:50:49.000Z,1008.9
2023-03-20T11:52:01.000Z,1008.9
2023-03-20T11:53:14.000Z,1008.9
2023-03-20T11:54:26.000Z,1008.9
2023-03-20T11:55:37.000Z,1008.9
2023-03-20T11:56:49.000Z,1008.9
2023-03-20T11:58:01.000Z,1008.9
2023-03-20T11:59:13.000Z,1008.9
2023-03-20T12:00:26.000Z,1008.9
2023-03-20T12:01:38.000Z,1008.9
2023-03-20T12:02:50.000Z,1008.9
2023-03-20T12:04:01.000Z,1008.8
2023-03-20T12:05:12.921Z,1008.7
2023-03-20T12:06:25.000Z,1008.7
2023-03-20T12:07:37.000Z,1008.7
2023-03-20T12:08:49.000Z,1008.7
2023-03-20T12:10:01.000Z,1008.6
2023-03-20T12:11:13.000Z,1008.7
2023-03-20T12:12:26.000Z,1008.7
2023-03-20T12:13:38.000Z,1008.7
2023-03-20T12:14:50.000Z,1008.6
2023-03-20T12:16:02.000Z,1008.7
2023-03-20T12:17:14.000Z,1008.7
2023-03-20T12:18:26.000Z,1008.6
2023-03-20T12:19:39.000Z,1008.6
2023-03-20T12:20:50.000Z,1008.6
2023-03-20T12:22:02.000Z,1008.6
2023-03-20T12:23:14.000Z,1008.6
2023-03-20T12:24:26.000Z,1008.6
2023-03-20T12:25:39.000Z,1008.6
2023-03-20T12:26:51.000Z,1008.6
2023-03-20T12:28:03.000Z,1008.6
2023-03-20T12:29:14.000Z,1008.6
2023-03-20T12:30:25.000Z,1008.6
2023-03-20T12:31:38.000Z,1008.6
2023-03-20T12:32:50.000Z,1008.5
2023-03-20T12:34:02.000Z,1008.6
2023-03-20T12:35:14.000Z,1008.6
2023-03-20T12:36:26.000Z,1008.5
2023-03-20T12:37:38.000Z,1008.5
2023-03-20T12:38:51.000Z,1008.6
2023-03-20T12:40:03.000Z,1008.5
2023-03-20T12:41:15.000Z,1008.5
2023-03-20T12:42:27.000Z,1008.5
2023-03-20T12:43:39.000Z,1008.5
2023-03-20T12:44:52.000Z,1008.5
2023-03-20T12:46:03.000Z,1008.5
2023-03-20T12:47:15.000Z,1008.5
2023-03-20T12:48:27.000Z,1008.4
2023-03-20T12:49:39.000Z,1008.5
2023-03-20T12:50:52.000Z,1008.4
2023-03-20T12:52:04.000Z,1008.5
2023-03-20T12:53:16.000Z,1008.4
2023-03-20T12:54:27.000Z,1008.4
2023-03-20T12:55:38.000Z,1008.4
2023-03-20T12:56:50.000Z,1008.4
2023-03-20T12:58:03.000Z,1008.3
2023-03-20T12:59:15.000Z,1008.3
2023-03-20T13:00:27.000Z,1008.3
2023-03-20T13:01:39.000Z,1008.3
2023-03-20T13:02:51.000Z,1008.3
2023-03-20T13:04:04.000Z,1008.3
2023-03-20T13:05:16.000Z,1008.3
2023-03-20T13:06:28.000Z,1008.2
2023-03-20T13:07:40.000Z,1008.1
2023-03-20T13:08:52.000Z,1008.2
2023-03-20T13:10:05.000Z,1008.1
2023-03-20T13:11:16.000Z,1008.1
2023-03-20T13:12:28.000Z,1008.1
2023-03-20T13:13:40.000Z,1008.1
2023-03-20T13:14:52.000Z,1008.1
2023-03-20T13:16:04.000Z,1008.1
2023-03-20T13:17:17.000Z,1008.1
2023-03-20T13:18:29.000Z,1008
2023-03-20T13:19:41.000Z,1008
2023-03-20T13:20:53.000Z,1008
2023-03-20T13:22:05.000Z,1008
2023-03-20T13:23:18.000Z,1008
2023-03-20T13:24:30.000Z,1008
2023-03-20T13:25:42.000Z,1008
2023-03-20T13:26:53.000Z,1008
2023-03-20T13:28:05.000Z,1008
2023-03-20T13:29:18.000Z,1007.9
2023-03-20T13:30:30.000Z,1007.9
2023-03-20T13:31:42.000Z,1007.9
2023-03-20T13:32:54.000Z,1007.9
2023-03-20T13:34:06.000Z,1007.9
2023-03-20T13:35:18.000Z,1007.9
2023-03-20T13:36:31.000Z,1007.9
2023-03-20T13:37:43.000Z,1007.9
2023-03-20T13:38:55.000Z,1007.8
2023-03-20T13:40:07.000Z,1007.9
2023-03-20T13:41:19.000Z,1007.8
2023-03-20T13:42:31.000Z,1007.8
2023-03-20T13:43:43.000Z,1007.8
2023-03-20T13:44:55.000Z,1007.7
2023-03-20T13:46:07.000Z,1007.8
2023-03-20T13:47:19.000Z,1007.8
2023-03-20T13:48:32.000Z,1007.8
2023-03-20T13:49:44.000Z,1007.7
2023-03-20T13:50:56.000Z,1007.7
2023-03-20T13:52:08.000Z,1007.7
2023-03-20T13:53:20.000Z,1007.6
2023-03-20T13:54:32.000Z,1007.6
2023-03-20T13:55:45.000Z,1007.6
2023-03-20T13:56:57.000Z,1007.6
2023-03-20T13:58:08.000Z,1007.6
2023-03-20T13:59:20.000Z,1007.6
2023-03-20T14:00:32.000Z,1007.6
2023-03-20T14:01:45.000Z,1007.6
2023-03-20T14:02:57.000Z,1007.6
2023-03-20T14:04:09.000Z,1007.6
2023-03-20T14:05:21.000Z,1007.6
2023-03-20T14:06:33.000Z,1007.6
2023-03-20T14:08:29.185Z,1007.6
2023-03-20T14:08:58.000Z,1007.6
2023-03-20T14:10:10.000Z,1007.6
2023-03-20T14:11:22.000Z,1007.6
2023-03-20T14:12:34.000Z,1007.6
2023-03-20T14:13:45.000Z,1007.6
2023-03-20T14:14:58.000Z,1007.6
2023-03-20T14:16:10.000Z,1007.5
2023-03-20T14:17:22.000Z,1007.5
2023-03-20T14:18:34.000Z,1007.5
2023-03-20T14:19:46.000Z,1007.5
2023-03-20T14:20:59.000Z,1007.5
2023-03-20T14:22:11.000Z,1007.5
2023-03-20T14:23:23.000Z,1007.5
2023-03-20T14:24:35.000Z,1007.5
2023-03-20T14:25:47.000Z,1007.5
2023-03-20T14:26:59.000Z,1007.4
2023-03-20T14:28:12.000Z,1007.4
2023-03-20T14:29:23.000Z,1007.4
2023-03-20T14:30:35.000Z,1007.4
2023-03-20T14:31:47.000Z,1007.4
2023-03-20T14:32:59.000Z,1007.4
2023-03-20T14:34:12.000Z,1007.4
2023-03-20T14:35:24.000Z,1007.3
2023-03-20T14:36:36.000Z,1007.4
2023-03-20T14:37:48.000Z,1007.4
2023-03-20T14:39:00.000Z,1007.3
2023-03-20T14:40:12.000Z,1007.3
2023-03-20T14:41:25.000Z,1007.3
2023-03-20T14:42:37.000Z,1007.3
2023-03-20T14:43:49.000Z,1007.3
2023-03-20T14:45:00.000Z,1007.4
2023-03-20T14:46:12.000Z,1007.4
2023-03-20T14:47:25.000Z,1007.4
2023-03-20T14:48:37.000Z,1007.4
2023-03-20T14:50:32.695Z,1007.4
2023-03-20T14:51:01.000Z,1007.4
2023-03-20T14:52:13.000Z,1007.3
2023-03-20T14:53:26.000Z,1007.4
2023-03-20T14:54:38.000Z,1007.4
2023-03-20T14:55:50.000Z,1007.4
2023-03-20T14:57:02.000Z,1007.4
2023-03-20T14:58:14.000Z,1007.4
2023-03-20T14:59:26.000Z,1007.4
2023-03-20T15:00:39.000Z,1007.4
2023-03-20T15:01:50.000Z,1007.4
2023-03-20T15:03:02.000Z,1007.3
2023-03-20T15:04:14.000Z,1007.4
2023-03-20T15:05:26.000Z,1007.4
2023-03-20T15:06:39.000Z,1007.4
2023-03-20T15:07:51.000Z,1007.4
2023-03-20T15:09:03.000Z,1007.4
2023-03-20T15:10:15.000Z,1007.4
2023-03-20T15:11:27.000Z,1007.4
2023-03-20T15:12:39.000Z,1007.4
2023-03-20T15:14:35.407Z,1007.3
2023-03-20T15:15:04.000Z,1007.4
2023-03-20T15:16:16.000Z,1007.3
2023-03-20T15:17:27.000Z,1007.3
2023-03-20T15:18:38.000Z,1007.3
2023-03-20T15:19:51.000Z,1007.3
2023-03-20T15:21:03.000Z,1007.2
2023-03-20T15:22:15.000Z,1007.3
2023-03-20T15:24:10.932Z,1007.3
2023-03-20T15:24:39.000Z,1007.2
2023-03-20T15:25:52.000Z,1007.2
2023-03-20T15:27:04.000Z,1007.2
2023-03-20T15:28:16.000Z,1007.2
2023-03-20T15:29:28.000Z,1007.2
2023-03-20T15:30:40.000Z,1007.2
2023-03-20T15:31:52.000Z,1007.2
2023-03-20T15:33:05.000Z,1007.2